Ashley, Illinois
Current Conditions -  °F | °C
As of 10:35 AM on Thursday 23 Oct 2014 (Local Time) from KENL Reporting Station
Clear Clear  
Wind Chill: 55°   Ceiling: Unl
Heat Index: 55°   Visibility: 10mi
Dew Point: 44°   Wind: 9mph
Humidity: 66%   Direction: 180°S
Pressure: 30.24"   Gusts: NA
Location:  38.33°N, 89.19°W
Report Text: KENL 231535Z AUTO 18008KT 10SM CLR 13/06 A3024 RMK AO2 T01260064
Loading
Personal Weather Stations






























Interactive Weather Map
Tropical Storm Tracking
New forecast layout! Learn more

10-Day Weather Forecast

Advertisements
Track Severe Weather on mobile